Saint Nicholas, Pennsylvania
Current Conditions -  °F | °C
As of 1:35 PM on Sunday 23 Nov 2014 (Local Time) from KHZL Reporting Station
Clear Clear  
Wind Chill: 59°   Ceiling: Unl
Heat Index: 59°   Visibility: 10mi
Dew Point: 30°   Wind: 8mph
Humidity: 34%   Direction: 170°S
Pressure: 30.1"   Gusts: NA
Location:  40.8128°N, 76.1382°W
Report Text: KHZL 231835Z AUTO 17007KT 10SM CLR 15/M01 A3010 RMK AO2
Loading
Personal Weather Stations






























Interactive Weather Map New forecast layout! Learn more

10-Day Weather Forecast

Advertisements
Track Severe Weather on mobile